createdAt,value
2023-01-29T00:00:08.997Z,89.83
2023-01-29T00:02:40.796Z,82.37
2023-01-29T00:05:25.984Z,80.38
2023-01-29T00:07:39.200Z,75.80
2023-01-29T00:10:07.586Z,74.77
2023-01-29T00:12:35.812Z,74.70
2023-01-29T00:15:04.087Z,74.50
2023-01-29T00:17:32.325Z,73.83
2023-01-29T00:20:00.547Z,81.37
2023-01-29T00:22:30.431Z,74.72
2023-01-29T00:24:59.138Z,75.50
2023-01-29T00:27:27.647Z,69.15
2023-01-29T00:30:12.596Z,71.55
2023-01-29T00:32:41.677Z,72.03
2023-01-29T00:35:10.596Z,68.25
2023-01-29T00:37:39.537Z,66.20
2023-01-29T00:40:09.166Z,69.07
2023-01-29T00:42:55.629Z,70.05
2023-01-29T00:45:24.254Z,75.65
2023-01-29T00:47:52.816Z,71.37
2023-01-29T00:50:21.425Z,71.47
2023-01-29T00:52:51.732Z,72.42
2023-01-29T00:55:20.515Z,92.40
2023-01-29T00:57:49.246Z,74.67
2023-01-29T01:00:19.551Z,76.28
2023-01-29T01:03:06.154Z,64.70
2023-01-29T01:05:36.663Z,72.90
2023-01-29T01:08:07.289Z,76.22
2023-01-29T01:10:37.489Z,74.60
2023-01-29T01:13:07.900Z,72.82
2023-01-29T01:15:39.468Z,72.45
2023-01-29T01:18:08.023Z,80.45
2023-01-29T01:20:37.536Z,70.37
2023-01-29T01:23:06.342Z,81.55
2023-01-29T01:25:36.273Z,79.55
2023-01-29T01:28:04.912Z,76.70
2023-01-29T01:30:33.550Z,79.53
2023-01-29T01:33:02.032Z,81.95
2023-01-29T01:35:30.594Z,79.95
2023-01-29T01:37:59.251Z,83.03
2023-01-29T01:40:28.040Z,80.22
2023-01-29T01:42:59.049Z,79.47
2023-01-29T01:45:37.345Z,76.17
2023-01-29T01:48:17.319Z,74.07
2023-01-29T01:51:01.528Z,66.45
2023-01-29T01:53:34.309Z,72.60
2023-01-29T01:56:05.737Z,71.22
2023-01-29T01:58:43.970Z,66.35
2023-01-29T02:01:12.842Z,53.85
2023-01-29T02:04:05.059Z,57.10
2023-01-29T02:06:53.283Z,67.22
2023-01-29T02:09:36.516Z,59.40
2023-01-29T02:12:07.867Z,57.98
2023-01-29T02:14:40.266Z,64.90
2023-01-29T02:17:14.791Z,64.95
2023-01-29T02:19:52.279Z,61.90
2023-01-29T02:22:59.264Z,59.10
2023-01-29T02:25:40.445Z,63.78
2023-01-29T02:28:36.910Z,65.72
2023-01-29T02:31:25.340Z,63.70
2023-01-29T02:33:56.932Z,65.65
2023-01-29T02:36:34.854Z,66.00
2023-01-29T02:39:15.418Z,68.25
2023-01-29T02:41:47.354Z,70.00
2023-01-29T02:44:23.034Z,65.57
2023-01-29T02:46:54.666Z,65.85
2023-01-29T02:49:37.974Z,66.15
2023-01-29T02:52:09.696Z,70.45
2023-01-29T02:54:53.257Z,71.07
2023-01-29T02:57:30.636Z,69.30
2023-01-29T03:00:02.270Z,77.78
2023-01-29T03:02:33.983Z,71.07
2023-01-29T03:05:07.383Z,66.87
2023-01-29T03:07:42.753Z,72.25
2023-01-29T03:10:14.693Z,64.03
2023-01-29T03:12:46.036Z,62.80
2023-01-29T03:15:25.171Z,58.97
2023-01-29T03:18:17.885Z,57.48
2023-01-29T03:20:52.539Z,58.75
2023-01-29T03:23:27.138Z,63.00
2023-01-29T03:26:16.127Z,59.65
2023-01-29T03:29:05.380Z,62.08
2023-01-29T03:31:52.517Z,59.83
2023-01-29T03:34:28.279Z,57.58
2023-01-29T03:37:15.204Z,62.70
2023-01-29T03:39:43.914Z,62.05
2023-01-29T03:42:18.261Z,60.73
2023-01-29T03:45:18.074Z,65.22
2023-01-29T03:47:52.359Z,64.40
2023-01-29T03:50:47.911Z,69.17
2023-01-29T03:53:25.479Z,62.45
2023-01-29T03:56:12.075Z,63.80
2023-01-29T03:58:55.523Z,68.17
2023-01-29T04:01:36.048Z,66.95
2023-01-29T04:04:07.743Z,61.92
2023-01-29T04:06:38.607Z,61.55
2023-01-29T04:09:25.125Z,64.05
2023-01-29T04:11:56.740Z,54.45
2023-01-29T04:14:25.440Z,47.17
2023-01-29T04:16:57.124Z,54.95
2023-01-29T04:19:26.826Z,53.38
2023-01-29T04:21:58.438Z,49.20
2023-01-29T04:24:27.442Z,59.85
2023-01-29T04:27:11.136Z,50.40
2023-01-29T04:29:48.484Z,56.55
2023-01-29T04:32:26.018Z,52.80
2023-01-29T04:35:03.819Z,53.50
2023-01-29T04:37:35.490Z,47.20
2023-01-29T04:40:41.279Z,57.30
2023-01-29T04:43:18.849Z,46.83
2023-01-29T04:45:56.042Z,45.50
2023-01-29T04:48:30.527Z,48.58
2023-01-29T04:51:07.747Z,45.90
2023-01-29T04:53:39.406Z,48.75
2023-01-29T04:56:11.060Z,54.95
2023-01-29T04:58:42.912Z,46.80
2023-01-29T05:01:14.549Z,51.33
2023-01-29T05:03:46.491Z,46.88
2023-01-29T05:06:17.094Z,54.98
2023-01-29T05:08:46.675Z,62.45
2023-01-29T05:11:15.513Z,56.02
2023-01-29T05:13:44.627Z,61.95
2023-01-29T05:16:19.330Z,59.88
2023-01-29T05:18:48.278Z,60.45
2023-01-29T05:21:16.906Z,61.13
2023-01-29T05:23:47.102Z,57.80
2023-01-29T05:26:33.559Z,60.12
2023-01-29T05:29:02.403Z,58.28
2023-01-29T05:31:30.983Z,56.73
2023-01-29T05:33:59.666Z,53.80
2023-01-29T05:36:28.453Z,57.70
2023-01-29T05:38:56.995Z,60.88
2023-01-29T05:41:25.564Z,62.62
2023-01-29T05:43:54.128Z,67.90
2023-01-29T05:46:22.696Z,57.50
2023-01-29T05:48:55.622Z,50.55
2023-01-29T05:51:24.408Z,61.95
2023-01-29T05:53:53.010Z,54.73
2023-01-29T05:56:21.708Z,56.42
2023-01-29T05:58:50.249Z,63.52
2023-01-29T06:01:21.040Z,49.13
2023-01-29T06:03:50.033Z,53.45
2023-01-29T06:06:18.565Z,62.13
2023-01-29T06:08:47.664Z,61.33
2023-01-29T06:11:18.244Z,45.58
2023-01-29T06:13:47.836Z,49.48
2023-01-29T06:16:16.742Z,59.35
2023-01-29T06:18:45.272Z,60.03
2023-01-29T06:21:15.016Z,53.92
2023-01-29T06:23:43.579Z,59.75
2023-01-29T06:26:13.992Z,56.45
2023-01-29T06:28:43.770Z,60.43
2023-01-29T06:31:35.270Z,49.18
2023-01-29T06:33:43.038Z,62.27
2023-01-29T06:36:11.996Z,64.17
2023-01-29T06:38:40.568Z,65.45
2023-01-29T06:41:11.560Z,65.50
2023-01-29T06:43:40.557Z,64.92
2023-01-29T06:46:09.578Z,66.53
2023-01-29T06:48:39.529Z,58.78
2023-01-29T06:51:09.820Z,60.17
2023-01-29T06:53:39.923Z,44.33
2023-01-29T06:56:08.860Z,53.17
2023-01-29T06:58:40.362Z,39.45
2023-01-29T07:01:12.647Z,65.22
2023-01-29T07:03:43.062Z,55.55
2023-01-29T07:06:11.496Z,47.98
2023-01-29T07:08:40.188Z,59.45
2023-01-29T07:11:08.480Z,61.75
2023-01-29T07:13:36.698Z,60.23
2023-01-29T07:16:05.937Z,59.75
2023-01-29T07:18:34.144Z,59.23
2023-01-29T07:21:03.901Z,56.42
2023-01-29T07:23:32.381Z,44.38
2023-01-29T07:26:04.763Z,62.73
2023-01-29T07:28:34.515Z,64.42
2023-01-29T07:31:02.791Z,59.25
2023-01-29T07:33:31.123Z,59.45
2023-01-29T07:35:59.356Z,48.70
2023-01-29T07:38:27.573Z,61.88
2023-01-29T07:40:55.851Z,17.48
2023-01-29T07:43:25.158Z,59.77
2023-01-29T07:45:53.457Z,59.08
2023-01-29T07:48:21.651Z,59.40
2023-01-29T07:50:56.737Z,37.23
2023-01-29T07:53:25.323Z,59.75
2023-01-29T07:55:53.611Z,59.83
2023-01-29T07:58:21.845Z,67.75
2023-01-29T08:00:50.046Z,47.20
2023-01-29T08:03:19.891Z,49.45
2023-01-29T08:05:48.180Z,57.83
2023-01-29T08:08:16.400Z,59.85
2023-01-29T08:10:44.634Z,59.30
2023-01-29T08:13:12.906Z,60.58
2023-01-29T08:15:42.670Z,58.98
2023-01-29T08:18:10.918Z,55.40
2023-01-29T08:20:39.139Z,67.82
2023-01-29T08:23:08.711Z,64.05
2023-01-29T08:25:37.055Z,65.65
2023-01-29T08:28:05.369Z,63.35
2023-01-29T08:30:34.734Z,63.40
2023-01-29T08:33:04.175Z,63.17
2023-01-29T08:35:32.375Z,64.50
2023-01-29T08:38:01.535Z,65.00
2023-01-29T08:40:31.624Z,44.42
2023-01-29T08:43:02.207Z,31.82
2023-01-29T08:45:30.971Z,54.18
2023-01-29T08:47:59.248Z,58.28
2023-01-29T08:50:27.494Z,63.92
2023-01-29T08:52:57.371Z,38.28
2023-01-29T08:55:27.126Z,56.60
2023-01-29T08:57:57.196Z,44.88
2023-01-29T09:00:25.477Z,48.08
2023-01-29T09:02:53.735Z,61.98
2023-01-29T09:05:22.040Z,65.72
2023-01-29T09:07:51.654Z,60.83
2023-01-29T09:10:20.313Z,66.67
2023-01-29T09:12:50.183Z,55.83
2023-01-29T09:15:19.382Z,57.13
2023-01-29T09:17:49.471Z,55.92
2023-01-29T09:20:20.796Z,52.93
2023-01-29T09:22:50.605Z,44.95
2023-01-29T09:25:19.501Z,60.83
2023-01-29T09:27:48.285Z,44.58
2023-01-29T09:30:17.287Z,47.73
2023-01-29T09:32:54.500Z,65.10
2023-01-29T09:35:16.489Z,64.12
2023-01-29T09:37:49.686Z,38.58
2023-01-29T09:40:29.749Z,62.43
2023-01-29T09:43:01.554Z,58.48
2023-01-29T09:45:31.368Z,34.75
2023-01-29T09:48:05.722Z,58.83
2023-01-29T09:50:44.976Z,37.65
2023-01-29T09:53:22.464Z,62.53
2023-01-29T09:55:54.076Z,48.52
2023-01-29T09:58:37.814Z,41.88
2023-01-29T10:01:30.294Z,59.10
2023-01-29T10:04:21.241Z,32.80
2023-01-29T10:07:01.635Z,55.38
2023-01-29T10:09:51.245Z,55.85
2023-01-29T10:12:26.128Z,48.35
2023-01-29T10:15:17.787Z,55.67
2023-01-29T10:17:50.552Z,55.57
2023-01-29T10:20:30.907Z,42.20
2023-01-29T10:23:02.679Z,57.70
2023-01-29T10:25:34.645Z,66.35
2023-01-29T10:28:04.543Z,62.35
2023-01-29T10:30:42.014Z,61.55
2023-01-29T10:33:13.674Z,50.10
2023-01-29T10:35:49.004Z,59.73
2023-01-29T10:38:32.349Z,59.83
2023-01-29T10:41:12.904Z,56.30
2023-01-29T10:43:53.219Z,41.75
2023-01-29T10:46:41.144Z,48.50
2023-01-29T10:49:10.887Z,33.73
2023-01-29T10:52:07.938Z,58.33
2023-01-29T10:54:48.458Z,57.70
2023-01-29T10:57:34.687Z,53.60
2023-01-29T11:00:21.362Z,30.25
2023-01-29T11:02:50.752Z,55.60
2023-01-29T11:05:23.890Z,50.45
2023-01-29T11:07:53.637Z,58.45
2023-01-29T11:10:31.217Z,60.15
2023-01-29T11:12:59.909Z,49.42
2023-01-29T11:15:32.231Z,51.40
2023-01-29T11:18:16.325Z,55.35
2023-01-29T11:20:45.660Z,50.43
2023-01-29T11:23:28.165Z,55.98
2023-01-29T11:25:57.658Z,57.35
2023-01-29T11:28:42.807Z,59.90
2023-01-29T11:31:23.200Z,54.40
2023-01-29T11:33:54.895Z,62.38
2023-01-29T11:36:30.859Z,62.15
2023-01-29T11:39:21.827Z,58.73
2023-01-29T11:41:56.576Z,60.43
2023-01-29T11:44:37.139Z,64.75
2023-01-29T11:47:20.961Z,62.93
2023-01-29T11:49:52.621Z,60.12
2023-01-29T11:52:23.959Z,53.35
2023-01-29T11:54:55.858Z,65.80
2023-01-29T11:57:27.490Z,31.55
2023-01-29T11:59:59.212Z,42.88
2023-01-29T12:02:34.151Z,65.95
2023-01-29T12:05:03.880Z,62.25
2023-01-29T12:07:33.349Z,65.83
2023-01-29T12:10:03.692Z,61.58
2023-01-29T12:12:35.247Z,67.22
2023-01-29T12:15:12.424Z,60.13
2023-01-29T12:17:44.235Z,63.68
2023-01-29T12:20:16.124Z,65.52
2023-01-29T12:22:48.020Z,52.43
2023-01-29T12:25:28.789Z,57.25
2023-01-29T12:28:00.471Z,68.60
2023-01-29T12:30:41.025Z,59.77
2023-01-29T12:33:20.998Z,62.60
2023-01-29T12:35:59.757Z,55.10
2023-01-29T12:38:28.471Z,49.65
2023-01-29T12:41:03.026Z,48.63
2023-01-29T12:43:40.560Z,57.35
2023-01-29T12:46:12.150Z,52.67
2023-01-29T12:48:43.591Z,63.30
2023-01-29T12:51:17.938Z,55.65
2023-01-29T12:53:49.574Z,59.25
2023-01-29T12:56:36.938Z,61.35
2023-01-29T12:59:36.148Z,61.10
2023-01-29T13:02:15.449Z,59.42
2023-01-29T13:04:47.090Z,58.23
2023-01-29T13:07:24.007Z,51.23
2023-01-29T13:09:55.625Z,59.63
2023-01-29T13:12:25.093Z,61.97
2023-01-29T13:14:57.060Z,63.65
2023-01-29T13:17:37.546Z,61.98
2023-01-29T13:20:18.528Z,62.00
2023-01-29T13:22:48.997Z,61.05
2023-01-29T13:25:19.122Z,55.90
2023-01-29T13:27:48.811Z,58.17
2023-01-29T13:30:32.419Z,58.02
2023-01-29T13:33:10.644Z,61.90
2023-01-29T13:35:43.001Z,58.80
2023-01-29T13:38:33.166Z,63.53
2023-01-29T13:41:04.625Z,59.55
2023-01-29T13:43:38.989Z,62.98
2023-01-29T13:46:17.523Z,57.65
2023-01-29T13:48:49.613Z,52.20
2023-01-29T13:51:21.779Z,54.73
2023-01-29T13:53:56.075Z,64.70
2023-01-29T13:56:36.847Z,55.78
2023-01-29T13:59:07.433Z,55.15
2023-01-29T14:01:51.105Z,50.20
2023-01-29T14:04:28.266Z,50.30
2023-01-29T14:06:58.732Z,46.20
2023-01-29T14:09:35.742Z,45.35
2023-01-29T14:12:24.635Z,49.73
2023-01-29T14:14:59.116Z,49.58
2023-01-29T14:17:29.492Z,56.88
2023-01-29T14:20:05.334Z,53.00
2023-01-29T14:22:34.902Z,51.65
2023-01-29T14:25:06.019Z,46.75
2023-01-29T14:27:36.141Z,52.30
2023-01-29T14:30:10.132Z,56.95
2023-01-29T14:32:40.707Z,43.33
2023-01-29T14:35:21.278Z,50.33
2023-01-29T14:37:53.103Z,49.08
2023-01-29T14:40:24.621Z,47.67
2023-01-29T14:43:08.669Z,50.08
2023-01-29T14:45:39.803Z,45.60
2023-01-29T14:48:14.389Z,46.92
2023-01-29T14:50:46.010Z,49.15
2023-01-29T14:53:34.148Z,38.80
2023-01-29T14:56:22.087Z,40.40
2023-01-29T14:58:59.638Z,45.85
2023-01-29T15:01:37.078Z,40.88
2023-01-29T15:04:08.460Z,37.90
2023-01-29T15:06:48.676Z,44.55
2023-01-29T15:09:37.337Z,37.90
2023-01-29T15:12:35.706Z,44.63
2023-01-29T15:15:26.593Z,38.13
2023-01-29T15:18:07.123Z,34.75
2023-01-29T15:20:40.768Z,35.28
2023-01-29T15:23:27.138Z,36.50
2023-01-29T15:26:01.802Z,32.30
2023-01-29T15:28:34.428Z,34.63
2023-01-29T15:31:05.302Z,35.52
2023-01-29T15:33:38.584Z,38.70
2023-01-29T15:36:08.590Z,40.03
2023-01-29T15:38:37.665Z,34.92
2023-01-29T15:41:21.165Z,37.38
2023-01-29T15:43:52.703Z,35.00
2023-01-29T15:46:30.420Z,31.37
2023-01-29T15:49:02.187Z,29.48
2023-01-29T15:51:32.091Z,30.00
2023-01-29T15:54:06.412Z,27.00
2023-01-29T15:56:40.871Z,33.83
2023-01-29T15:59:11.648Z,29.72
2023-01-29T16:01:40.224Z,32.40
2023-01-29T16:04:11.806Z,28.32
2023-01-29T16:06:42.207Z,31.13
2023-01-29T16:09:13.820Z,29.37
2023-01-29T16:11:42.609Z,33.17
2023-01-29T16:14:14.236Z,32.65
2023-01-29T16:16:45.967Z,28.50
2023-01-29T16:19:29.248Z,36.00
2023-01-29T16:22:03.573Z,25.48
2023-01-29T16:24:35.020Z,30.55
2023-01-29T16:27:12.418Z,30.45
2023-01-29T16:29:41.364Z,33.10
2023-01-29T16:32:12.483Z,32.70
2023-01-29T16:34:43.618Z,30.62
2023-01-29T16:37:27.264Z,32.33
2023-01-29T16:39:56.433Z,36.75
2023-01-29T16:42:30.480Z,35.73
2023-01-29T16:45:04.911Z,37.78
2023-01-29T16:47:36.376Z,35.23
2023-01-29T16:50:19.861Z,30.55
2023-01-29T16:52:59.913Z,36.15
2023-01-29T16:55:40.392Z,38.15
2023-01-29T16:58:17.934Z,36.03
2023-01-29T17:00:52.554Z,31.73
2023-01-29T17:03:22.014Z,37.98
2023-01-29T17:05:51.519Z,35.52
2023-01-29T17:08:23.140Z,34.33
2023-01-29T17:10:52.125Z,36.77
2023-01-29T17:13:29.637Z,41.53
2023-01-29T17:16:03.243Z,46.23
2023-01-29T17:18:31.850Z,37.55
2023-01-29T17:21:00.749Z,37.73
2023-01-29T17:23:29.304Z,34.70
2023-01-29T17:25:57.941Z,29.70
2023-01-29T17:28:26.807Z,35.95
2023-01-29T17:31:05.725Z,35.75
2023-01-29T17:33:26.925Z,34.35
2023-01-29T17:35:55.475Z,38.08
2023-01-29T17:38:26.604Z,32.67
2023-01-29T17:41:00.179Z,36.23
2023-01-29T17:43:28.699Z,36.45
2023-01-29T17:45:57.388Z,39.18
2023-01-29T17:48:27.996Z,37.95
2023-01-29T17:50:59.680Z,36.42
2023-01-29T17:53:43.287Z,46.80
2023-01-29T17:55:58.508Z,34.35
2023-01-29T17:58:28.084Z,38.28
2023-01-29T18:00:56.664Z,38.25
2023-01-29T18:03:26.494Z,41.08
2023-01-29T18:05:55.089Z,39.80
2023-01-29T18:08:35.797Z,44.18
2023-01-29T18:11:04.582Z,34.98
2023-01-29T18:13:34.785Z,37.90
2023-01-29T18:16:03.496Z,38.85
2023-01-29T18:18:32.155Z,40.28
2023-01-29T18:21:00.697Z,42.17
2023-01-29T18:23:32.082Z,41.90
2023-01-29T18:26:00.861Z,35.45
2023-01-29T18:28:29.785Z,38.00
2023-01-29T18:30:58.359Z,35.10
2023-01-29T18:33:26.925Z,35.95
2023-01-29T18:35:55.610Z,32.13
2023-01-29T18:38:24.800Z,31.27
2023-01-29T18:40:53.535Z,31.40
2023-01-29T18:43:25.459Z,32.78
2023-01-29T18:45:56.798Z,34.97
2023-01-29T18:48:25.412Z,34.98
2023-01-29T18:50:53.967Z,39.67
2023-01-29T18:53:22.621Z,42.90
2023-01-29T18:56:05.230Z,37.05
2023-01-29T18:58:35.800Z,33.65
2023-01-29T19:01:08.830Z,34.33
2023-01-29T19:03:37.818Z,37.50
2023-01-29T19:06:08.308Z,33.73
2023-01-29T19:08:37.225Z,32.28
2023-01-29T19:11:07.756Z,36.05
2023-01-29T19:13:38.072Z,38.08
2023-01-29T19:16:12.581Z,35.25
2023-01-29T19:18:41.518Z,29.77
2023-01-29T19:21:15.880Z,33.15
2023-01-29T19:23:45.304Z,38.13
2023-01-29T19:26:13.945Z,31.82
2023-01-29T19:28:43.006Z,31.95
2023-01-29T19:31:11.610Z,38.02
2023-01-29T19:33:40.657Z,34.13
2023-01-29T19:36:09.658Z,37.78
2023-01-29T19:38:38.724Z,50.83
2023-01-29T19:41:07.664Z,32.93
2023-01-29T19:43:37.959Z,31.60
2023-01-29T19:46:07.404Z,41.65
2023-01-29T19:48:35.991Z,27.75
2023-01-29T19:51:08.912Z,45.83
2023-01-29T19:53:39.152Z,41.35
2023-01-29T19:56:10.611Z,39.05
2023-01-29T19:58:39.429Z,41.28
2023-01-29T20:01:16.811Z,30.85
2023-01-29T20:03:46.856Z,37.75
2023-01-29T20:06:17.366Z,34.43
2023-01-29T20:08:46.590Z,43.13
2023-01-29T20:11:16.114Z,38.80
2023-01-29T20:13:46.448Z,27.37
2023-01-29T20:16:15.160Z,40.50
2023-01-29T20:18:44.177Z,43.17
2023-01-29T20:21:15.274Z,33.05
2023-01-29T20:23:45.862Z,41.83
2023-01-29T20:26:17.102Z,36.05
2023-01-29T20:28:47.849Z,36.13
2023-01-29T20:31:16.990Z,37.67
2023-01-29T20:33:45.687Z,39.03
2023-01-29T20:36:14.824Z,33.75
2023-01-29T20:38:43.419Z,34.48
2023-01-29T20:41:14.477Z,33.65
2023-01-29T20:43:43.878Z,38.63
2023-01-29T20:46:12.688Z,34.15
2023-01-29T20:48:42.074Z,36.88
2023-01-29T20:51:14.759Z,32.25
2023-01-29T20:53:45.235Z,36.65
2023-01-29T20:56:15.128Z,33.83
2023-01-29T20:58:43.882Z,35.28
2023-01-29T21:01:14.995Z,32.00
2023-01-29T21:03:43.808Z,37.42
2023-01-29T21:06:13.470Z,33.05
2023-01-29T21:08:42.753Z,36.05
2023-01-29T21:11:11.622Z,34.03
2023-01-29T21:13:40.246Z,36.38
2023-01-29T21:16:10.712Z,36.28
2023-01-29T21:18:39.327Z,35.05
2023-01-29T21:21:07.852Z,33.53
2023-01-29T21:23:36.396Z,34.63
2023-01-29T21:26:06.591Z,34.53
2023-01-29T21:28:36.002Z,29.90
2023-01-29T21:31:10.076Z,33.42
2023-01-29T21:33:39.047Z,31.95
2023-01-29T21:36:09.910Z,32.05
2023-01-29T21:38:38.776Z,33.67
2023-01-29T21:41:10.033Z,33.60
2023-01-29T21:43:39.066Z,31.30
2023-01-29T21:46:14.073Z,33.13
2023-01-29T21:48:42.732Z,27.67
2023-01-29T21:51:11.023Z,32.35
2023-01-29T21:53:39.300Z,32.50
2023-01-29T21:56:07.609Z,30.55
2023-01-29T21:58:35.838Z,31.97
2023-01-29T22:01:18.099Z,28.67
2023-01-29T22:03:33.899Z,27.02
2023-01-29T22:06:02.230Z,28.00
2023-01-29T22:08:31.746Z,32.48
2023-01-29T22:11:01.524Z,29.72
2023-01-29T22:13:29.810Z,29.55
2023-01-29T22:15:58.455Z,31.95
2023-01-29T22:18:27.325Z,33.15
2023-01-29T22:20:56.111Z,30.70
2023-01-29T22:23:25.307Z,31.90
2023-01-29T22:25:53.908Z,30.65
2023-01-29T22:28:22.614Z,25.62
2023-01-29T22:30:51.253Z,31.10
2023-01-29T22:33:20.532Z,32.08
2023-01-29T22:35:52.611Z,35.83
2023-01-29T22:38:22.554Z,33.18
2023-01-29T22:40:54.139Z,32.75
2023-01-29T22:43:22.635Z,29.85
2023-01-29T22:45:50.817Z,38.05
2023-01-29T22:48:19.255Z,32.38
2023-01-29T22:50:49.053Z,33.55
2023-01-29T22:53:17.650Z,33.80
2023-01-29T22:55:54.674Z,39.67
2023-01-29T22:58:23.275Z,35.15
2023-01-29T23:00:52.251Z,31.27
2023-01-29T23:03:20.864Z,34.73
2023-01-29T23:05:49.441Z,34.88
2023-01-29T23:08:18.130Z,32.80
2023-01-29T23:10:46.692Z,35.33
2023-01-29T23:13:15.513Z,30.57
2023-01-29T23:15:44.242Z,32.80
2023-01-29T23:18:12.764Z,33.70
2023-01-29T23:20:41.338Z,30.48
2023-01-29T23:23:09.876Z,29.32
2023-01-29T23:25:56.044Z,31.57
2023-01-29T23:28:24.574Z,36.68
2023-01-29T23:30:53.162Z,37.25
2023-01-29T23:33:21.877Z,33.45
2023-01-29T23:35:50.411Z,29.77
2023-01-29T23:38:18.998Z,30.62
2023-01-29T23:40:47.985Z,29.02
2023-01-29T23:43:16.521Z,31.73
2023-01-29T23:45:45.108Z,32.95
2023-01-29T23:48:13.669Z,29.42
2023-01-29T23:50:42.228Z,31.75
2023-01-29T23:53:10.785Z,30.55
2023-01-29T23:55:39.491Z,31.20
2023-01-29T23:58:08.182Z,31.60
